Time;durP1;ratioP1;P1;durP2;ratioP2;P2;SDS_P1;SDS_P2;PMS_P1;PMS_P2;Temp;Humidity;BMP_temperature;BMP_pressure;BME280_temperature;BME280_humidity;BME280_pressure;Samples;Min_cycle;Max_cycle;Signal;HPM_P1;HPM_P2
2023/02/26 00:00:00;;;;;;;2.73;1.80;;;4.20;83.90;;;;;;5077009;28;20478;-57
2023/02/26 00:02:29;;;;;;;4.53;1.93;;;4.10;84.00;;;;;;5077028;28;20456;-57
2023/02/26 00:04:56;;;;;;;2.70;1.87;;;4.10;84.30;;;;;;5076861;28;20447;-57
2023/02/26 00:07:22;;;;;;;4.50;1.90;;;4.10;84.30;;;;;;5076996;28;20456;-57
2023/02/26 00:09:49;;;;;;;2.73;1.53;;;4.10;84.30;;;;;;5077286;28;20993;-57
2023/02/26 00:12:16;;;;;;;5.93;2.20;;;4.10;84.40;;;;;;5077062;28;21001;-58
2023/02/26 00:14:45;;;;;;;4.50;2.33;;;4.00;84.40;;;;;;5076660;28;20969;-57
2023/02/26 00:17:28;;;;;;;10.63;4.20;;;4.00;84.80;;;;;;5076796;28;20957;-57
2023/02/26 00:19:55;;;;;;;7.63;5.50;;;4.00;85.20;;;;;;5076831;28;20464;-57
2023/02/26 00:22:22;;;;;;;6.40;4.90;;;4.00;85.50;;;;;;5076329;28;20460;-57
2023/02/26 00:24:49;;;;;;;8.03;5.50;;;4.00;86.50;;;;;;5076288;28;20960;-57
2023/02/26 00:27:16;;;;;;;9.73;5.73;;;4.00;86.80;;;;;;5076512;28;20453;-57
2023/02/26 00:29:44;;;;;;;11.07;6.53;;;4.00;87.20;;;;;;5076091;28;20835;-57
2023/02/26 00:32:11;;;;;;;13.23;7.10;;;4.00;87.60;;;;;;5075904;28;20541;-57
2023/02/26 00:34:39;;;;;;;10.40;6.90;;;4.00;87.60;;;;;;5076053;28;20826;-57
2023/02/26 00:37:15;;;;;;;10.43;6.33;;;4.00;87.80;;;;;;5075992;28;20923;-57
2023/02/26 00:39:50;;;;;;;12.50;8.50;;;4.00;88.20;;;;;;5076253;28;20812;-57
2023/02/26 00:42:17;;;;;;;10.60;6.73;;;4.00;88.50;;;;;;5076149;28;20424;-57
2023/02/26 00:44:46;;;;;;;10.43;6.30;;;4.00;89.20;;;;;;5075776;28;20449;-56
2023/02/26 00:47:25;;;;;;;12.97;7.13;;;4.00;89.50;;;;;;5075918;28;20448;-56
2023/02/26 00:50:03;;;;;;;12.40;5.77;;;4.10;89.90;;;;;;5076332;28;20486;-57
2023/02/26 00:52:43;;;;;;;9.80;4.57;;;4.00;90.10;;;;;;5076024;28;20548;-56
2023/02/26 00:55:10;;;;;;;12.60;8.03;;;4.10;90.20;;;;;;5075929;28;20913;-56
2023/02/26 00:57:37;;;;;;;13.67;6.97;;;4.00;90.10;;;;;;5075857;28;20448;-56
2023/02/26 01:00:07;;;;;;;15.43;6.83;;;4.00;90.30;;;;;;5075734;28;20836;-56
2023/02/26 01:02:34;;;;;;;12.53;5.80;;;4.10;90.50;;;;;;5075458;28;20961;-57
2023/02/26 01:05:03;;;;;;;13.07;5.90;;;4.00;90.60;;;;;;5074966;28;20451;-57
2023/02/26 01:07:33;;;;;;;12.30;7.13;;;4.00;90.70;;;;;;5075611;28;20475;-56
2023/02/26 01:10:01;;;;;;;11.30;5.73;;;4.10;90.90;;;;;;5075404;28;20472;-56
2023/02/26 01:12:28;;;;;;;7.80;4.93;;;4.10;90.90;;;;;;5075036;28;21035;-56
2023/02/26 01:14:55;;;;;;;5.03;3.97;;;4.10;90.90;;;;;;5075087;28;20957;-56
2023/02/26 01:17:28;;;;;;;13.00;4.77;;;4.10;91.00;;;;;;5075450;28;20447;-56
2023/02/26 01:20:01;;;;;;;13.43;4.43;;;4.10;91.10;;;;;;5075315;28;20472;-56
2023/02/26 01:22:35;;;;;;;7.40;3.83;;;4.10;91.30;;;;;;5075179;28;20457;-56
2023/02/26 01:25:04;;;;;;;11.83;4.47;;;4.10;91.30;;;;;;5075296;28;20429;-56
2023/02/26 01:27:31;;;;;;;10.70;7.73;;;4.10;91.40;;;;;;5075074;28;20459;-56
2023/02/26 01:29:58;;;;;;;13.83;7.70;;;4.10;91.50;;;;;;5075083;28;20475;-57
2023/02/26 01:32:36;;;;;;;6.93;4.90;;;4.20;91.60;;;;;;5075676;28;20481;-56
2023/02/26 01:35:09;;;;;;;17.00;8.70;;;4.10;91.60;;;;;;5075034;28;20433;-57
2023/02/26 01:37:47;;;;;;;12.53;6.80;;;4.10;91.60;;;;;;5074926;28;20918;-56
2023/02/26 01:41:02;;;;;;;14.53;5.80;;;4.10;91.60;;;;;;5074918;28;20464;-56
2023/02/26 01:43:34;;;;;;;9.97;5.10;;;4.10;91.80;;;;;;5074899;28;20807;-56
2023/02/26 01:46:06;;;;;;;7.33;4.97;;;4.10;91.90;;;;;;5075325;28;20433;-56
2023/02/26 01:48:39;;;;;;;14.07;5.50;;;4.10;91.90;;;;;;5075270;28;20440;-56
2023/02/26 01:51:06;;;;;;;8.53;5.50;;;4.10;92.00;;;;;;5074806;28;20483;-57
2023/02/26 01:53:33;;;;;;;7.20;4.30;;;4.10;92.00;;;;;;5074264;28;20488;-56
2023/02/26 01:56:03;;;;;;;12.33;6.13;;;4.10;92.10;;;;;;5074736;28;20447;-56
2023/02/26 01:58:34;;;;;;;10.37;5.33;;;4.10;92.10;;;;;;5074569;28;20448;-56
2023/02/26 02:01:01;;;;;;;10.97;4.93;;;4.10;92.30;;;;;;5075375;28;20425;-56
2023/02/26 02:03:31;;;;;;;9.07;5.20;;;4.10;92.30;;;;;;5074503;28;20449;-56
2023/02/26 02:06:04;;;;;;;9.07;4.70;;;4.10;92.30;;;;;;5074783;28;20452;-56
2023/02/26 02:08:34;;;;;;;8.20;4.90;;;4.10;92.60;;;;;;5074382;28;20429;-56
2023/02/26 02:11:03;;;;;;;7.70;5.00;;;4.00;92.20;;;;;;5074290;28;20455;-56
2023/02/26 02:13:44;;;;;;;6.63;4.53;;;4.10;92.30;;;;;;5074090;28;20480;-56
2023/02/26 02:16:20;;;;;;;7.53;4.27;;;4.00;92.60;;;;;;5073367;28;20437;-56
2023/02/26 02:18:59;;;;;;;6.50;4.33;;;4.00;92.30;;;;;;5074079;28;20433;-56
2023/02/26 02:21:47;;;;;;;5.10;3.43;;;4.00;92.30;;;;;;5074786;28;20479;-56
2023/02/26 02:24:21;;;;;;;12.43;4.30;;;4.00;92.70;;;;;;5073835;28;20972;-57
2023/02/26 02:27:01;;;;;;;4.43;2.77;;;4.00;92.40;;;;;;5073988;28;20425;-56
2023/02/26 02:29:39;;;;;;;7.07;3.13;;;3.90;92.50;;;;;;5073923;28;20468;-56
2023/02/26 02:32:10;;;;;;;4.77;2.77;;;3.90;92.50;;;;;;5073856;28;20476;-56
2023/02/26 02:34:44;;;;;;;5.03;3.00;;;3.90;92.50;;;;;;5073867;28;20451;-56
2023/02/26 02:37:17;;;;;;;3.87;3.10;;;3.90;92.50;;;;;;5073538;28;20878;-56
2023/02/26 02:39:49;;;;;;;7.23;2.47;;;3.80;92.30;;;;;;5073981;28;20460;-56
2023/02/26 02:42:24;;;;;;;6.80;2.80;;;3.80;92.70;;;;;;5074405;28;20753;-56
2023/02/26 02:44:57;;;;;;;5.03;2.80;;;3.80;92.40;;;;;;5073745;28;20432;-56
2023/02/26 02:47:28;;;;;;;3.70;2.60;;;3.80;92.40;;;;;;5073435;28;20902;-56
2023/02/26 02:50:02;;;;;;;5.30;2.63;;;3.70;92.30;;;;;;5073572;28;20469;-56
2023/02/26 02:52:36;;;;;;;8.27;3.70;;;3.70;92.30;;;;;;5073603;28;20475;-56
2023/02/26 02:55:08;;;;;;;7.10;3.27;;;3.70;92.30;;;;;;5073612;28;20439;-56
2023/02/26 02:57:39;;;;;;;4.07;3.10;;;3.70;92.50;;;;;;5073702;28;20800;-56
2023/02/26 03:00:09;;;;;;;9.03;3.40;;;3.70;92.60;;;;;;5073679;28;20473;-56
2023/02/26 03:02:43;;;;;;;5.20;3.20;;;3.70;92.60;;;;;;5074409;28;20429;-56
2023/02/26 03:05:09;;;;;;;5.33;3.40;;;3.60;92.60;;;;;;5074337;28;20429;-56
2023/02/26 03:07:43;;;;;;;5.47;3.10;;;3.60;92.60;;;;;;5073516;28;20440;-56
2023/02/26 03:10:11;;;;;;;3.47;2.20;;;3.60;92.70;;;;;;5073541;28;20468;-56
2023/02/26 03:12:38;;;;;;;4.20;2.20;;;3.60;92.70;;;;;;5073091;28;20861;-56
2023/02/26 03:15:05;;;;;;;3.47;2.10;;;3.60;92.80;;;;;;5073390;28;20437;-56
2023/02/26 03:17:36;;;;;;;6.93;2.67;;;3.50;93.00;;;;;;5073320;28;20830;-56
2023/02/26 03:20:18;;;;;;;6.73;2.27;;;3.50;92.60;;;;;;5073345;28;20469;-56
2023/02/26 03:22:54;;;;;;;3.57;2.43;;;3.50;92.70;;;;;;5072934;28;20448;-56
2023/02/26 03:25:26;;;;;;;6.47;2.40;;;3.40;92.50;;;;;;5073388;28;20455;-56
2023/02/26 03:28:06;;;;;;;4.97;2.50;;;3.40;92.50;;;;;;5074168;28;20934;-57
2023/02/26 03:30:38;;;;;;;5.97;2.60;;;3.30;92.50;;;;;;5077088;28;21007;-56
2023/02/26 03:33:12;;;;;;;4.93;2.60;;;3.30;92.70;;;;;;5077317;28;20491;-56
2023/02/26 03:35:47;;;;;;;7.23;2.30;;;3.20;92.70;;;;;;5077315;28;20906;-56
2023/02/26 03:38:19;;;;;;;4.23;2.60;;;3.20;92.70;;;;;;5077422;28;20428;-56
2023/02/26 03:40:49;;;;;;;8.07;3.00;;;3.20;92.80;;;;;;5078280;28;20472;-56
2023/02/26 03:43:20;;;;;;;5.97;3.20;;;3.20;92.80;;;;;;5077216;28;20463;-56
2023/02/26 03:45:50;;;;;;;8.90;3.10;;;3.10;92.70;;;;;;5077142;28;20424;-56
2023/02/26 03:48:20;;;;;;;3.57;2.70;;;3.20;92.80;;;;;;5077065;28;20455;-56
2023/02/26 03:50:51;;;;;;;5.30;2.67;;;3.20;92.60;;;;;;5077198;28;20460;-56
2023/02/26 03:53:24;;;;;;;4.80;2.33;;;3.10;92.50;;;;;;5076592;28;20977;-56
2023/02/26 03:55:57;;;;;;;10.83;2.70;;;3.10;92.40;;;;;;5076953;28;20433;-56
2023/02/26 03:58:24;;;;;;;4.17;2.43;;;3.10;92.40;;;;;;5076815;28;20437;-56
2023/02/26 04:01:01;;;;;;;6.70;3.10;;;3.10;92.50;;;;;;5076445;28;20473;-57
2023/02/26 04:03:32;;;;;;;3.53;2.03;;;3.10;92.40;;;;;;5076774;28;20431;-56
2023/02/26 04:06:02;;;;;;;4.53;3.10;;;3.10;92.40;;;;;;5076725;28;20478;-56
2023/02/26 04:08:29;;;;;;;4.93;2.93;;;3.10;92.30;;;;;;5076305;28;20925;-56
2023/02/26 04:10:59;;;;;;;3.50;2.30;;;3.10;92.30;;;;;;5076543;28;20468;-56
2023/02/26 04:13:27;;;;;;;7.27;2.93;;;3.00;92.30;;;;;;5076747;28;20944;-56
2023/02/26 04:15:53;;;;;;;3.33;1.90;;;3.00;92.30;;;;;;5076471;28;20872;-56
2023/02/26 04:18:20;;;;;;;2.47;2.03;;;3.00;92.30;;;;;;5076436;28;20453;-56
2023/02/26 04:20:47;;;;;;;7.70;2.20;;;3.00;92.20;;;;;;5076044;28;20994;-56
2023/02/26 04:23:15;;;;;;;5.00;2.53;;;3.00;92.20;;;;;;5076129;28;20463;-56
2023/02/26 04:25:41;;;;;;;3.27;2.50;;;3.00;92.30;;;;;;5076311;28;20475;-56
2023/02/26 04:28:08;;;;;;;3.10;2.00;;;3.00;92.30;;;;;;5076549;28;20455;-56
2023/02/26 04:30:35;;;;;;;6.43;2.47;;;2.90;92.20;;;;;;5075952;28;20981;-56
2023/02/26 04:33:02;;;;;;;5.13;2.03;;;2.90;92.10;;;;;;5076119;28;20476;-56
2023/02/26 04:35:28;;;;;;;5.27;1.67;;;2.90;92.20;;;;;;5075841;28;20874;-56
2023/02/26 04:37:55;;;;;;;3.63;2.00;;;2.80;92.30;;;;;;5076106;28;21002;-56
2023/02/26 04:40:23;;;;;;;7.20;2.00;;;2.80;92.40;;;;;;5074925;28;20464;-56
2023/02/26 04:42:50;;;;;;;3.37;1.60;;;2.80;92.60;;;;;;5075714;28;20952;-56
2023/02/26 04:45:17;;;;;;;4.00;1.70;;;2.80;92.80;;;;;;5075967;28;20445;-57
2023/02/26 04:47:43;;;;;;;3.23;1.47;;;2.80;92.90;;;;;;5075965;28;20909;-57
2023/02/26 04:50:11;;;;;;;4.97;1.87;;;2.80;93.00;;;;;;5075794;28;20479;-56
2023/02/26 04:52:38;;;;;;;4.33;2.80;;;2.70;93.10;;;;;;5075859;28;20827;-56
2023/02/26 04:55:06;;;;;;;3.73;1.07;;;2.80;93.30;;;;;;5075888;28;20448;-56
2023/02/26 04:57:34;;;;;;;3.53;1.10;;;2.70;93.20;;;;;;5075824;28;20447;-56
2023/02/26 05:00:01;;;;;;;2.30;1.27;;;2.70;93.30;;;;;;5075756;28;20469;-56
2023/02/26 05:02:27;;;;;;;3.33;1.30;;;2.70;93.40;;;;;;5075353;28;20456;-56
2023/02/26 05:04:54;;;;;;;5.10;1.60;;;2.70;93.50;;;;;;5075288;28;20956;-56
2023/02/26 05:07:21;;;;;;;6.60;2.00;;;2.70;93.60;;;;;;5075388;28;20440;-56
2023/02/26 05:09:47;;;;;;;5.63;1.63;;;2.70;93.60;;;;;;5075543;28;20867;-56
2023/02/26 05:12:14;;;;;;;5.90;2.17;;;2.60;93.50;;;;;;5075175;28;20953;-56
2023/02/26 05:14:42;;;;;;;3.63;1.60;;;2.60;93.80;;;;;;5075449;28;20568;-56
2023/02/26 05:17:09;;;;;;;4.67;1.50;;;2.60;93.50;;;;;;5075126;28;20941;-57
2023/02/26 05:19:36;;;;;;;1.83;1.10;;;2.60;93.50;;;;;;5075317;28;20472;-56
2023/02/26 05:22:03;;;;;;;3.90;1.70;;;2.60;93.60;;;;;;5075166;28;20460;-56
2023/02/26 05:24:30;;;;;;;6.03;1.57;;;2.60;93.60;;;;;;5074955;28;20793;-56
2023/02/26 05:26:57;;;;;;;4.13;1.90;;;2.50;93.50;;;;;;5075379;28;20453;-56
2023/02/26 05:29:24;;;;;;;3.27;1.80;;;2.50;93.50;;;;;;5075182;28;20522;-56
2023/02/26 05:31:52;;;;;;;4.23;2.40;;;2.50;93.60;;;;;;5075482;28;20456;-56
2023/02/26 05:34:19;;;;;;;6.13;2.13;;;2.50;93.60;;;;;;5075159;28;20503;-56
2023/02/26 05:36:46;;;;;;;2.93;2.10;;;2.40;93.60;;;;;;5075182;28;20492;-56
2023/02/26 05:39:13;;;;;;;2.10;1.90;;;2.40;93.70;;;;;;5074711;28;20998;-56
2023/02/26 05:41:39;;;;;;;6.23;1.67;;;2.40;93.80;;;;;;5074939;28;20456;-56
2023/02/26 05:44:07;;;;;;;2.10;1.47;;;2.40;93.80;;;;;;5074839;28;20949;-56
2023/02/26 05:46:33;;;;;;;4.90;1.93;;;2.30;93.90;;;;;;5074965;28;20459;-56
2023/02/26 05:49:01;;;;;;;4.60;2.00;;;2.30;93.90;;;;;;5074967;28;20871;-56
2023/02/26 05:51:28;;;;;;;6.60;2.80;;;2.40;94.00;;;;;;5074686;28;20452;-56
2023/02/26 05:53:55;;;;;;;3.63;1.93;;;2.30;94.00;;;;;;5075281;28;20512;-56
2023/02/26 05:56:21;;;;;;;5.43;1.70;;;2.30;93.90;;;;;;5075342;28;20445;-56
2023/02/26 05:58:48;;;;;;;6.53;2.30;;;2.30;93.90;;;;;;5074446;28;20448;-56
2023/02/26 06:01:15;;;;;;;5.73;2.37;;;2.30;93.90;;;;;;5074832;28;20453;-56
2023/02/26 06:03:43;;;;;;;3.67;1.97;;;2.30;93.80;;;;;;5074561;28;20457;-56
2023/02/26 06:06:12;;;;;;;7.73;2.50;;;2.30;93.80;;;;;;5074205;28;20452;-56
2023/02/26 06:08:39;;;;;;;2.40;2.20;;;2.30;93.70;;;;;;5074428;28;20452;-56
2023/02/26 06:11:06;;;;;;;6.20;2.50;;;2.30;93.70;;;;;;5074356;28;20444;-56
2023/02/26 06:13:33;;;;;;;6.90;1.83;;;2.30;93.60;;;;;;5074141;28;20480;-56
2023/02/26 06:15:59;;;;;;;7.07;2.40;;;2.20;93.50;;;;;;5074660;28;20831;-57
2023/02/26 06:18:26;;;;;;;3.97;2.13;;;2.20;93.50;;;;;;5074596;28;20533;-56
2023/02/26 06:20:53;;;;;;;4.60;2.10;;;2.20;93.50;;;;;;5074467;28;20472;-56
2023/02/26 06:23:21;;;;;;;6.00;3.13;;;2.30;93.50;;;;;;5073878;28;20452;-56
2023/02/26 06:25:50;;;;;;;10.10;2.67;;;2.30;93.40;;;;;;5074090;28;20455;-56
2023/02/26 06:28:17;;;;;;;7.73;1.90;;;2.30;93.40;;;;;;5074085;28;20459;-56
2023/02/26 06:30:43;;;;;;;6.53;2.70;;;2.20;93.40;;;;;;5073988;28;21023;-56
2023/02/26 06:33:10;;;;;;;2.83;1.90;;;2.20;93.30;;;;;;5073540;28;20455;-56
2023/02/26 06:35:37;;;;;;;3.40;2.30;;;2.20;93.40;;;;;;5074018;28;20452;-56
2023/02/26 06:38:04;;;;;;;8.43;2.57;;;2.20;93.40;;;;;;5073541;28;20957;-56
2023/02/26 06:40:32;;;;;;;3.70;1.80;;;2.20;93.40;;;;;;5073744;28;20468;-56
2023/02/26 06:42:59;;;;;;;4.30;2.20;;;2.20;93.20;;;;;;5073849;28;20477;-56
2023/02/26 06:45:26;;;;;;;3.80;2.40;;;2.20;93.10;;;;;;5073824;28;20452;-56
2023/02/26 06:47:52;;;;;;;5.70;2.40;;;2.20;93.20;;;;;;5073668;28;20459;-56
2023/02/26 06:50:20;;;;;;;4.00;2.13;;;2.20;93.20;;;;;;5073669;28;20468;-56
2023/02/26 06:52:47;;;;;;;4.27;2.20;;;2.20;93.10;;;;;;5073625;28;20452;-56
2023/02/26 06:55:14;;;;;;;4.50;2.70;;;2.20;93.10;;;;;;5073458;28;20476;-56
2023/02/26 06:57:42;;;;;;;5.37;3.00;;;2.20;93.00;;;;;;5074417;28;20771;-56
2023/02/26 07:00:10;;;;;;;4.33;2.30;;;2.20;93.00;;;;;;5073447;28;20499;-56
2023/02/26 07:02:36;;;;;;;6.07;2.83;;;2.20;92.90;;;;;;5073182;28;20457;-56
2023/02/26 07:05:03;;;;;;;5.40;2.30;;;2.20;92.90;;;;;;5073414;28;20460;-56
2023/02/26 07:07:30;;;;;;;9.90;4.10;;;2.20;93.00;;;;;;5073401;28;20453;-56
2023/02/26 07:09:56;;;;;;;4.90;3.40;;;2.20;92.90;;;;;;5073452;28;20475;-56
2023/02/26 07:12:23;;;;;;;5.47;2.83;;;2.20;92.90;;;;;;5073076;28;20441;-56
2023/02/26 07:14:51;;;;;;;7.20;4.10;;;2.20;93.00;;;;;;5072883;28;21057;-56
2023/02/26 07:17:20;;;;;;;7.00;3.20;;;2.20;93.20;;;;;;5073312;28;20475;-57
2023/02/26 07:19:47;;;;;;;6.90;2.57;;;2.30;93.30;;;;;;5073289;28;20503;-56
2023/02/26 07:22:14;;;;;;;9.03;3.27;;;2.30;93.40;;;;;;5073105;28;20456;-56
2023/02/26 07:24:41;;;;;;;5.80;2.50;;;2.30;93.40;;;;;;5073304;28;20444;-56
2023/02/26 07:27:08;;;;;;;3.70;2.50;;;2.30;93.30;;;;;;5073118;28;20445;-57
2023/02/26 07:29:35;;;;;;;5.90;2.47;;;2.30;93.30;;;;;;5072781;28;20893;-56
2023/02/26 07:32:04;;;;;;;4.70;2.20;;;2.30;93.40;;;;;;5073311;28;20887;-57
2023/02/26 07:34:31;;;;;;;3.07;2.07;;;2.40;93.40;;;;;;5072743;28;21079;-56
2023/02/26 07:36:58;;;;;;;4.33;2.60;;;2.40;93.60;;;;;;5073164;28;20455;-56
2023/02/26 07:39:25;;;;;;;8.33;2.33;;;2.40;93.50;;;;;;5073019;28;20994;-56
2023/02/26 07:41:52;;;;;;;6.10;3.30;;;2.40;93.50;;;;;;5073140;28;20476;-56
2023/02/26 07:44:19;;;;;;;3.10;2.07;;;2.50;93.50;;;;;;5073056;28;20448;-56
2023/02/26 07:46:46;;;;;;;2.67;1.43;;;2.50;93.50;;;;;;5073025;28;20494;-56
2023/02/26 07:49:14;;;;;;;1.90;1.33;;;2.60;93.40;;;;;;5073296;28;20546;-56
2023/02/26 07:51:44;;;;;;;2.03;1.33;;;2.60;93.20;;;;;;5073091;28;20449;-56
2023/02/26 07:54:11;;;;;;;4.90;1.90;;;2.60;93.30;;;;;;5073686;28;20475;-56
2023/02/26 07:56:38;;;;;;;6.13;2.23;;;2.60;93.20;;;;;;5072911;28;20440;-56
2023/02/26 07:59:05;;;;;;;3.03;1.80;;;2.60;93.30;;;;;;5072491;28;20981;-56
2023/02/26 08:01:32;;;;;;;2.27;1.73;;;2.60;93.50;;;;;;5072603;28;20455;-56
2023/02/26 08:03:58;;;;;;;1.73;1.30;;;2.70;93.40;;;;;;5072867;28;20455;-56
2023/02/26 08:06:26;;;;;;;8.70;2.30;;;2.70;93.20;;;;;;5072853;28;20452;-56
2023/02/26 08:08:53;;;;;;;2.50;1.47;;;2.80;93.20;;;;;;5072842;28;20468;-56
2023/02/26 08:11:20;;;;;;;5.10;1.67;;;2.80;92.90;;;;;;5072845;28;20540;-56
2023/02/26 08:13:47;;;;;;;3.40;1.37;;;2.80;92.60;;;;;;5073638;28;20538;-56
2023/02/26 08:16:14;;;;;;;2.10;1.20;;;2.90;92.60;;;;;;5076490;28;20444;-57
2023/02/26 08:18:41;;;;;;;5.40;1.60;;;2.90;92.60;;;;;;5076421;28;20445;-57
2023/02/26 08:21:07;;;;;;;4.10;1.97;;;2.90;92.80;;;;;;5076332;28;20527;-57
2023/02/26 08:23:35;;;;;;;4.20;1.87;;;2.90;92.50;;;;;;5076418;28;20862;-59
2023/02/26 08:26:02;;;;;;;4.33;1.40;;;3.00;92.70;;;;;;5076262;28;20453;-56
2023/02/26 08:28:29;;;;;;;4.30;1.47;;;3.10;92.60;;;;;;5076146;28;20452;-56
2023/02/26 08:30:56;;;;;;;3.23;1.40;;;3.10;92.40;;;;;;5076074;28;20551;-56
2023/02/26 08:33:24;;;;;;;7.70;2.33;;;3.20;92.40;;;;;;5076671;28;20448;-56
2023/02/26 08:35:52;;;;;;;6.20;1.63;;;3.20;92.20;;;;;;5076042;28;20516;-57
2023/02/26 08:38:19;;;;;;;4.63;1.30;;;3.30;92.10;;;;;;5075747;28;20949;-56
2023/02/26 08:40:49;;;;;;;7.13;1.47;;;3.30;92.00;;;;;;5075901;28;20502;-56
2023/02/26 08:43:15;;;;;;;1.90;1.40;;;3.40;92.10;;;;;;5075746;28;20449;-56
2023/02/26 08:45:42;;;;;;;4.00;1.83;;;3.40;91.80;;;;;;5076333;28;20441;-56
2023/02/26 08:48:09;;;;;;;5.10;2.30;;;3.40;91.80;;;;;;5075731;28;20952;-56
2023/02/26 08:50:35;;;;;;;2.60;1.87;;;3.50;91.50;;;;;;5075876;28;20511;-57
2023/02/26 08:53:02;;;;;;;3.63;3.13;;;3.60;91.20;;;;;;5075955;28;20498;-57
2023/02/26 08:55:29;;;;;;;4.83;2.10;;;3.70;90.80;;;;;;5075721;28;20488;-57
2023/02/26 08:57:57;;;;;;;4.03;2.40;;;3.80;90.70;;;;;;5075781;28;20796;-57
2023/02/26 09:00:24;;;;;;;2.33;1.33;;;3.80;88.90;;;;;;5075571;28;20460;-57
2023/02/26 09:02:51;;;;;;;7.10;1.50;;;3.80;89.10;;;;;;5075736;28;20457;-57
2023/02/26 09:05:18;;;;;;;3.03;1.70;;;3.90;87.80;;;;;;5075778;28;20432;-57
2023/02/26 09:07:44;;;;;;;3.40;1.53;;;3.80;87.90;;;;;;5075680;28;20452;-57
2023/02/26 09:10:13;;;;;;;5.77;1.70;;;3.90;88.90;;;;;;5075526;28;20472;-57
2023/02/26 09:12:40;;;;;;;4.77;1.70;;;3.90;89.50;;;;;;5075233;28;20447;-57
2023/02/26 09:15:10;;;;;;;2.73;1.80;;;4.00;89.20;;;;;;5075471;28;20476;-57
2023/02/26 09:17:36;;;;;;;1.83;1.27;;;4.00;88.00;;;;;;5075821;28;20540;-57
2023/02/26 09:20:04;;;;;;;4.40;1.50;;;4.00;88.80;;;;;;5075709;28;20483;-57
2023/02/26 09:22:31;;;;;;;2.37;1.30;;;4.10;89.30;;;;;;5075122;28;20471;-57
2023/02/26 09:24:58;;;;;;;2.60;1.50;;;4.10;89.20;;;;;;5075147;28;20441;-57
2023/02/26 09:27:24;;;;;;;1.80;1.60;;;4.20;87.00;;;;;;5075350;28;20798;-57
2023/02/26 09:29:51;;;;;;;2.30;1.40;;;4.20;86.90;;;;;;5075142;28;20522;-57
2023/02/26 09:32:19;;;;;;;3.27;1.30;;;4.20;86.40;;;;;;5075148;28;20855;-57
2023/02/26 09:34:46;;;;;;;2.30;1.33;;;4.20;85.30;;;;;;5074960;28;20511;-57
2023/02/26 09:37:12;;;;;;;3.53;1.13;;;4.30;85.70;;;;;;5075249;28;20514;-57
2023/02/26 09:39:39;;;;;;;1.37;1.10;;;4.40;85.80;;;;;;5075004;28;20563;-57
2023/02/26 09:42:19;;;;;;;1.80;1.30;;;4.50;86.00;;;;;;5075069;28;20512;-56
2023/02/26 09:44:47;;;;;;;4.40;1.30;;;4.50;82.60;;;;;;5074869;28;20433;-55
2023/02/26 09:47:18;;;;;;;1.60;0.90;;;4.60;84.60;;;;;;5074868;28;20440;-53
2023/02/26 09:49:53;;;;;;;2.43;1.20;;;4.70;84.50;;;;;;5074942;28;20473;-53
2023/02/26 09:52:25;;;;;;;3.83;1.20;;;4.70;87.50;;;;;;5074815;28;20432;-56
2023/02/26 09:54:55;;;;;;;1.17;0.70;;;4.80;86.40;;;;;;5074582;28;20472;-56
2023/02/26 09:57:29;;;;;;;2.80;1.03;;;4.90;84.00;;;;;;5074766;28;20429;-56
2023/02/26 09:59:56;;;;;;;2.53;1.03;;;5.00;78.30;;;;;;5074596;28;20464;-57
2023/02/26 10:02:32;;;;;;;1.70;0.70;;;5.20;78.50;;;;;;5074617;28;20449;-57
2023/02/26 10:05:10;;;;;;;3.27;1.07;;;5.40;77.80;;;;;;5074455;28;20435;-57
2023/02/26 10:07:44;;;;;;;1.70;1.10;;;5.60;75.50;;;;;;5074475;28;20444;-56
2023/02/26 10:10:19;;;;;;;3.13;1.17;;;5.70;74.60;;;;;;5074387;28;20469;-57
2023/02/26 10:12:47;;;;;;;2.60;1.37;;;5.90;73.70;;;;;;5074406;28;20441;-57
2023/02/26 10:15:19;;;;;;;2.20;0.80;;;6.00;70.10;;;;;;5074173;28;20483;-57
2023/02/26 10:17:57;;;;;;;1.93;1.10;;;6.20;70.70;;;;;;5073908;28;20910;-57
2023/02/26 10:20:30;;;;;;;2.20;0.80;;;6.40;70.20;;;;;;5074306;28;20522;-57
2023/02/26 10:23:07;;;;;;;1.83;0.87;;;6.60;68.10;;;;;;5074049;28;20452;-57
2023/02/26 10:25:38;;;;;;;5.97;1.17;;;6.70;67.60;;;;;;5074045;28;20431;-57
2023/02/26 10:28:21;;;;;;;0.83;0.67;;;7.00;66.80;;;;;;5074843;28;20432;-57
2023/02/26 10:30:56;;;;;;;3.10;1.00;;;7.30;64.60;;;;;;5073746;28;20880;-57
2023/02/26 10:33:33;;;;;;;2.30;1.00;;;7.70;63.60;;;;;;5073979;28;20425;-57
2023/02/26 10:36:10;;;;;;;3.10;1.20;;;8.20;60.50;;;;;;5074430;28;20472;-57
2023/02/26 10:38:37;;;;;;;1.50;0.80;;;8.90;58.60;;;;;;5072899;28;20439;-58
2023/02/26 10:41:08;;;;;;;2.43;0.63;;;9.50;57.00;;;;;;5073787;28;20441;-57
2023/02/26 10:43:40;;;;;;;3.10;0.80;;;10.00;53.30;;;;;;5073762;28;20437;-57
2023/02/26 10:46:18;;;;;;;2.23;1.03;;;10.50;50.30;;;;;;5073386;28;20944;-57
2023/02/26 10:49:01;;;;;;;1.30;0.63;;;10.70;49.80;;;;;;5073622;28;20432;-57
2023/02/26 10:51:34;;;;;;;1.87;0.87;;;11.00;49.40;;;;;;5073681;28;20432;-57
2023/02/26 10:54:06;;;;;;;1.97;0.93;;;11.20;46.00;;;;;;5073557;28;20437;-57
2023/02/26 10:56:34;;;;;;;1.50;0.80;;;11.10;46.00;;;;;;5073237;28;20982;-57
2023/02/26 10:59:01;;;;;;;2.30;0.90;;;11.30;46.10;;;;;;5073491;28;20475;-56
2023/02/26 11:01:30;;;;;;;2.80;1.17;;;11.50;45.10;;;;;;5073122;28;20970;-57
2023/02/26 11:04:00;;;;;;;3.50;1.00;;;11.90;42.40;;;;;;5073148;28;20984;-57
2023/02/26 11:06:32;;;;;;;1.60;0.90;;;12.00;41.10;;;;;;5073417;28;20447;-57
2023/02/26 11:09:00;;;;;;;1.77;0.70;;;12.10;41.10;;;;;;5073585;28;20497;-57
2023/02/26 11:11:40;;;;;;;2.77;0.80;;;12.40;39.70;;;;;;5073544;28;20460;-57
2023/02/26 11:14:08;;;;;;;1.50;0.93;;;12.70;40.50;;;;;;5073347;28;20433;-58
2023/02/26 11:16:36;;;;;;;1.47;0.90;;;12.80;38.20;;;;;;5072878;28;20480;-58
2023/02/26 11:19:06;;;;;;;2.90;0.87;;;12.60;39.30;;;;;;5073209;28;20504;-58
2023/02/26 11:21:40;;;;;;;1.00;0.70;;;12.10;38.50;;;;;;5073784;28;20460;-59
2023/02/26 11:24:11;;;;;;;4.07;0.70;;;11.80;39.80;;;;;;5073430;28;20522;-59
2023/02/26 11:26:42;;;;;;;2.73;1.07;;;11.90;40.10;;;;;;5073072;28;20964;-59
2023/02/26 11:29:14;;;;;;;1.67;0.80;;;11.70;41.00;;;;;;5074081;28;20500;-58
2023/02/26 11:31:42;;;;;;;0.80;0.80;;;11.60;41.30;;;;;;5073628;28;20436;-59
2023/02/26 11:34:11;;;;;;;2.13;1.07;;;11.30;40.00;;;;;;5073461;28;20459;-58
2023/02/26 11:36:42;;;;;;;1.97;0.97;;;10.90;39.50;;;;;;5072876;28;20476;-58
2023/02/26 11:39:17;;;;;;;1.10;0.80;;;10.50;41.10;;;;;;5073254;28;20586;-58
2023/02/26 11:41:47;;;;;;;1.60;1.10;;;10.20;42.10;;;;;;5073179;28;20456;-59
2023/02/26 11:44:18;;;;;;;2.17;1.00;;;9.90;43.10;;;;;;5073397;28;20429;-58
2023/02/26 11:46:47;;;;;;;0.93;0.60;;;9.60;44.30;;;;;;5073412;28;20421;-58
2023/02/26 11:49:17;;;;;;;4.57;1.10;;;9.40;47.00;;;;;;5074948;28;20468;-58
2023/02/26 11:51:47;;;;;;;2.43;1.00;;;9.20;48.60;;;;;;5077201;28;20440;-58
2023/02/26 11:54:23;;;;;;;3.17;0.90;;;8.90;47.00;;;;;;5077109;28;20428;-59
2023/02/26 11:56:50;;;;;;;2.67;0.97;;;9.20;47.30;;;;;;5077050;28;21052;-59
2023/02/26 11:59:19;;;;;;;2.23;0.80;;;9.30;45.50;;;;;;5077068;28;20473;-59
2023/02/26 12:01:46;;;;;;;1.20;0.80;;;9.30;44.60;;;;;;5077021;28;20444;-59
2023/02/26 12:04:15;;;;;;;1.67;0.77;;;9.20;45.80;;;;;;5076913;28;20567;-57
2023/02/26 12:06:42;;;;;;;3.30;1.00;;;9.10;46.40;;;;;;5076891;28;20436;-58
2023/02/26 12:09:13;;;;;;;3.03;1.10;;;8.80;46.20;;;;;;5076289;28;21051;-58
2023/02/26 12:11:54;;;;;;;3.23;1.67;;;8.70;46.40;;;;;;5076367;28;20914;-59
2023/02/26 12:14:39;;;;;;;2.30;0.90;;;8.50;45.90;;;;;;5076831;28;20437;-59
2023/02/26 12:17:20;;;;;;;6.97;1.57;;;8.40;46.70;;;;;;5076379;28;20998;-59
2023/02/26 12:19:54;;;;;;;2.40;1.00;;;8.40;46.30;;;;;;5076770;28;20473;-58
2023/02/26 12:22:35;;;;;;;1.53;1.07;;;8.50;46.40;;;;;;5076337;28;20472;-59
2023/02/26 12:25:20;;;;;;;1.57;0.80;;;8.60;48.00;;;;;;5076233;28;20440;-59
2023/02/26 12:28:00;;;;;;;1.03;0.70;;;8.90;46.70;;;;;;5076031;28;20902;-59
2023/02/26 12:30:49;;;;;;;4.57;1.20;;;9.80;44.70;;;;;;5076509;28;20479;-57
2023/02/26 12:33:28;;;;;;;2.20;0.73;;;10.90;41.20;;;;;;5076113;28;20903;-57
2023/02/26 12:36:04;;;;;;;2.10;1.13;;;11.80;41.20;;;;;;5076581;28;20468;-57
2023/02/26 12:38:44;;;;;;;2.40;1.43;;;12.40;38.80;;;;;;5076329;28;20428;-59
2023/02/26 12:41:24;;;;;;;2.90;1.00;;;13.00;37.70;;;;;;5076268;28;20434;-59
2023/02/26 12:43:53;;;;;;;3.73;1.10;;;13.80;35.10;;;;;;5076013;28;20440;-59
2023/02/26 12:46:42;;;;;;;2.70;0.80;;;14.80;33.00;;;;;;5075894;28;20451;-60
2023/02/26 12:49:40;;;;;;;1.80;1.20;;;15.90;31.80;;;;;;5076057;28;20530;-58
2023/02/26 12:52:33;;;;;;;1.13;0.73;;;16.70;30.50;;;;;;5075597;28;20923;-57
2023/02/26 12:55:13;;;;;;;1.13;0.80;;;17.20;28.00;;;;;;5075757;28;20518;-57
2023/02/26 12:58:20;;;;;;;1.40;0.67;;;17.80;28.30;;;;;;5075551;28;20910;-57
2023/02/26 13:01:07;;;;;;;2.57;1.50;;;18.60;27.40;;;;;;5074773;28;20467;-57
2023/02/26 13:04:05;;;;;;;1.00;0.90;;;19.20;25.60;;;;;;5075820;28;20462;-57
2023/02/26 13:06:51;;;;;;;0.80;0.70;;;19.80;25.10;;;;;;5075683;28;20474;-57
2023/02/26 13:09:31;;;;;;;1.50;0.87;;;20.10;25.30;;;;;;5076327;28;20475;-57
2023/02/26 13:12:08;;;;;;;1.27;0.80;;;19.90;23.70;;;;;;5075618;28;20440;-57